Terminal Aerodrome Forecast
Issued by NWS

Home | Current Version | Previous Version | Text Only | Print | Product List | Glossary Off
Versions: 1 2 3 4 5 6 7 8 9 10 11 12 13 14

000
FTUS43 KICT 242300
TAFCNU
TAF
KCNU 242320Z 2500/2524 32015KT P6SM -SHRA BKN035
     FM250200 VRB06KT P6SM SKC
     FM251500 20012KT P6SM FEW250
     FM251800 20017G23KT P6SM SCT250=

USA.gov is the U.S. government's official web portal to all federal, state and local government web resources and services.